sensor_id;sensor_type;location;lat;lon;timestamp;temperature;humidity
39875;DHT22;25547;52.530;13.194;2023-03-01T00:02:16;0.00;99.90
39875;DHT22;25547;52.530;13.194;2023-03-01T00:04:44;-0.20;99.90
39875;DHT22;25547;52.530;13.194;2023-03-01T00:07:15;-0.20;99.90
39875;DHT22;25547;52.530;13.194;2023-03-01T00:09:42;-0.30;99.90
39875;DHT22;25547;52.530;13.194;2023-03-01T00:12:11;-0.50;99.90
39875;DHT22;25547;52.530;13.194;2023-03-01T00:14:36;-0.50;99.90
39875;DHT22;25547;52.530;13.194;2023-03-01T00:17:02;-0.60;99.90
39875;DHT22;25547;52.530;13.194;2023-03-01T00:19:30;-0.60;99.90
39875;DHT22;25547;52.530;13.194;2023-03-01T00:21:57;-0.60;99.90
39875;DHT22;25547;52.530;13.194;2023-03-01T00:24:28;-0.60;99.90
39875;DHT22;25547;52.530;13.194;2023-03-01T00:26:56;-0.70;99.90
39875;DHT22;25547;52.530;13.194;2023-03-01T00:29:24;-0.80;99.90
39875;DHT22;25547;52.530;13.194;2023-03-01T00:31:50;-0.80;99.90
39875;DHT22;25547;52.530;13.194;2023-03-01T00:34:16;-0.80;99.90
39875;DHT22;25547;52.530;13.194;2023-03-01T00:36:41;-0.80;99.90
39875;DHT22;25547;52.530;13.194;2023-03-01T00:39:12;-0.90;99.90
39875;DHT22;25547;52.530;13.194;2023-03-01T00:41:41;-0.90;99.90
39875;DHT22;25547;52.530;13.194;2023-03-01T00:44:07;-0.90;99.90
39875;DHT22;25547;52.530;13.194;2023-03-01T00:46:33;-0.90;99.90
39875;DHT22;25547;52.530;13.194;2023-03-01T00:48:59;-0.90;99.90
39875;DHT22;25547;52.530;13.194;2023-03-01T00:51:28;-0.80;99.90
39875;DHT22;25547;52.530;13.194;2023-03-01T00:53:55;-0.70;99.90
39875;DHT22;25547;52.530;13.194;2023-03-01T00:56:22;-0.70;99.90
39875;DHT22;25547;52.530;13.194;2023-03-01T00:58:50;-0.80;99.90
39875;DHT22;25547;52.530;13.194;2023-03-01T01:01:22;-0.90;99.90
39875;DHT22;25547;52.530;13.194;2023-03-01T01:03:53;-0.90;99.90
39875;DHT22;25547;52.530;13.194;2023-03-01T01:08:57;-0.90;99.90
39875;DHT22;25547;52.530;13.194;2023-03-01T01:11:28;-0.80;99.90
39875;DHT22;25547;52.530;13.194;2023-03-01T01:13:54;-0.70;99.90
39875;DHT22;25547;52.530;13.194;2023-03-01T01:16:22;-0.70;99.90
39875;DHT22;25547;52.530;13.194;2023-03-01T01:18:51;-0.70;99.90
39875;DHT22;25547;52.530;13.194;2023-03-01T01:21:18;-0.70;99.90
39875;DHT22;25547;52.530;13.194;2023-03-01T01:23:47;-0.60;99.90
39875;DHT22;25547;52.530;13.194;2023-03-01T01:26:24;-0.70;99.90
39875;DHT22;25547;52.530;13.194;2023-03-01T01:28:51;-0.90;99.90
39875;DHT22;25547;52.530;13.194;2023-03-01T01:31:17;-1.00;99.90
39875;DHT22;25547;52.530;13.194;2023-03-01T01:33:48;-1.00;99.90
39875;DHT22;25547;52.530;13.194;2023-03-01T01:36:13;-1.00;99.90
39875;DHT22;25547;52.530;13.194;2023-03-01T01:38:39;-0.90;99.90
39875;DHT22;25547;52.530;13.194;2023-03-01T01:41:09;-0.70;99.90
39875;DHT22;25547;52.530;13.194;2023-03-01T01:43:37;-0.70;99.90
39875;DHT22;25547;52.530;13.194;2023-03-01T01:46:04;-1.00;99.90
39875;DHT22;25547;52.530;13.194;2023-03-01T01:48:54;-1.00;99.90
39875;DHT22;25547;52.530;13.194;2023-03-01T01:51:24;-1.10;99.90
39875;DHT22;25547;52.530;13.194;2023-03-01T01:53:56;-1.20;99.90
39875;DHT22;25547;52.530;13.194;2023-03-01T01:56:24;-1.20;99.90
39875;DHT22;25547;52.530;13.194;2023-03-01T01:58:55;-1.10;99.90
39875;DHT22;25547;52.530;13.194;2023-03-01T02:01:21;-1.00;99.90
39875;DHT22;25547;52.530;13.194;2023-03-01T02:03:47;-0.90;99.90
39875;DHT22;25547;52.530;13.194;2023-03-01T02:08:46;-0.80;99.90
39875;DHT22;25547;52.530;13.194;2023-03-01T02:11:13;-0.90;99.90
39875;DHT22;25547;52.530;13.194;2023-03-01T02:13:40;-1.00;99.90
39875;DHT22;25547;52.530;13.194;2023-03-01T02:16:11;-0.80;99.90
39875;DHT22;25547;52.530;13.194;2023-03-01T02:18:39;-0.90;99.90
39875;DHT22;25547;52.530;13.194;2023-03-01T02:21:20;-1.10;99.90
39875;DHT22;25547;52.530;13.194;2023-03-01T02:23:50;-1.10;99.90
39875;DHT22;25547;52.530;13.194;2023-03-01T02:26:36;-1.00;99.90
39875;DHT22;25547;52.530;13.194;2023-03-01T02:29:02;-1.00;99.90
39875;DHT22;25547;52.530;13.194;2023-03-01T02:31:28;-0.90;99.90
39875;DHT22;25547;52.530;13.194;2023-03-01T02:34:19;-0.90;99.90
39875;DHT22;25547;52.530;13.194;2023-03-01T02:36:49;-1.10;99.90
39875;DHT22;25547;52.530;13.194;2023-03-01T02:39:21;-1.30;99.90
39875;DHT22;25547;52.530;13.194;2023-03-01T02:41:52;-1.40;99.90
39875;DHT22;25547;52.530;13.194;2023-03-01T02:44:21;-1.40;99.90
39875;DHT22;25547;52.530;13.194;2023-03-01T02:46:49;-1.30;99.90
39875;DHT22;25547;52.530;13.194;2023-03-01T02:49:23;-1.20;99.90
39875;DHT22;25547;52.530;13.194;2023-03-01T02:57:23;-0.90;99.90
39875;DHT22;25547;52.530;13.194;2023-03-01T02:59:54;-0.90;99.90
39875;DHT22;25547;52.530;13.194;2023-03-01T03:02:24;-0.90;99.90
39875;DHT22;25547;52.530;13.194;2023-03-01T03:07:46;-1.40;99.90
39875;DHT22;25547;52.530;13.194;2023-03-01T03:10:24;-1.50;99.90
39875;DHT22;25547;52.530;13.194;2023-03-01T03:12:53;-1.70;99.90
39875;DHT22;25547;52.530;13.194;2023-03-01T03:15:20;-1.80;99.90
39875;DHT22;25547;52.530;13.194;2023-03-01T03:17:46;-1.70;99.90
39875;DHT22;25547;52.530;13.194;2023-03-01T03:20:17;-1.50;99.90
39875;DHT22;25547;52.530;13.194;2023-03-01T03:22:50;-1.40;99.90
39875;DHT22;25547;52.530;13.194;2023-03-01T03:25:17;-1.60;99.90
39875;DHT22;25547;52.530;13.194;2023-03-01T03:27:47;-1.70;99.90
39875;DHT22;25547;52.530;13.194;2023-03-01T03:30:16;-1.60;99.90
39875;DHT22;25547;52.530;13.194;2023-03-01T03:32:44;-1.60;99.90
39875;DHT22;25547;52.530;13.194;2023-03-01T03:37:51;-1.50;99.90
39875;DHT22;25547;52.530;13.194;2023-03-01T03:40:50;-1.50;99.90
39875;DHT22;25547;52.530;13.194;2023-03-01T03:43:21;-1.40;99.90
39875;DHT22;25547;52.530;13.194;2023-03-01T03:45:49;-1.40;99.90
39875;DHT22;25547;52.530;13.194;2023-03-01T03:48:15;-1.60;99.90
39875;DHT22;25547;52.530;13.194;2023-03-01T03:50:46;-1.80;99.90
39875;DHT22;25547;52.530;13.194;2023-03-01T03:53:12;-1.80;99.90
39875;DHT22;25547;52.530;13.194;2023-03-01T03:55:38;-1.90;99.90
39875;DHT22;25547;52.530;13.194;2023-03-01T03:58:09;-2.00;99.90
39875;DHT22;25547;52.530;13.194;2023-03-01T04:00:40;-2.10;99.90
39875;DHT22;25547;52.530;13.194;2023-03-01T04:03:06;-2.00;99.90
39875;DHT22;25547;52.530;13.194;2023-03-01T04:05:32;-2.00;99.90
39875;DHT22;25547;52.530;13.194;2023-03-01T04:07:59;-2.00;99.90
39875;DHT22;25547;52.530;13.194;2023-03-01T04:10:40;-2.00;99.90
39875;DHT22;25547;52.530;13.194;2023-03-01T04:13:14;-1.90;99.90
39875;DHT22;25547;52.530;13.194;2023-03-01T04:15:42;-1.80;99.90
39875;DHT22;25547;52.530;13.194;2023-03-01T04:18:15;-1.70;99.90
39875;DHT22;25547;52.530;13.194;2023-03-01T04:20:44;-1.60;99.90
39875;DHT22;25547;52.530;13.194;2023-03-01T04:23:16;-1.50;99.90
39875;DHT22;25547;52.530;13.194;2023-03-01T04:25:56;-1.70;99.90
39875;DHT22;25547;52.530;13.194;2023-03-01T04:28:27;-1.90;99.90
39875;DHT22;25547;52.530;13.194;2023-03-01T04:30:55;-2.00;99.90
39875;DHT22;25547;52.530;13.194;2023-03-01T04:33:21;-2.00;99.90
39875;DHT22;25547;52.530;13.194;2023-03-01T04:35:52;-2.00;99.90
39875;DHT22;25547;52.530;13.194;2023-03-01T04:38:21;-2.10;99.90
39875;DHT22;25547;52.530;13.194;2023-03-01T04:40:47;-2.20;99.90
39875;DHT22;25547;52.530;13.194;2023-03-01T04:43:13;-2.20;99.90
39875;DHT22;25547;52.530;13.194;2023-03-01T04:45:40;-2.20;99.90
39875;DHT22;25547;52.530;13.194;2023-03-01T04:48:05;-2.20;99.90
39875;DHT22;25547;52.530;13.194;2023-03-01T04:50:31;-2.20;99.90
39875;DHT22;25547;52.530;13.194;2023-03-01T04:52:57;-2.20;99.90
39875;DHT22;25547;52.530;13.194;2023-03-01T04:55:25;-2.10;99.90
39875;DHT22;25547;52.530;13.194;2023-03-01T04:57:51;-2.30;99.90
39875;DHT22;25547;52.530;13.194;2023-03-01T05:00:17;-2.30;99.90
39875;DHT22;25547;52.530;13.194;2023-03-01T05:02:57;-2.30;99.90
39875;DHT22;25547;52.530;13.194;2023-03-01T05:05:29;-2.30;99.90
39875;DHT22;25547;52.530;13.194;2023-03-01T05:07:57;-2.30;99.90
39875;DHT22;25547;52.530;13.194;2023-03-01T05:10:24;-2.30;99.90
39875;DHT22;25547;52.530;13.194;2023-03-01T05:12:50;-2.30;99.90
39875;DHT22;25547;52.530;13.194;2023-03-01T05:15:17;-2.30;99.90
39875;DHT22;25547;52.530;13.194;2023-03-01T05:17:43;-2.30;99.90
39875;DHT22;25547;52.530;13.194;2023-03-01T05:20:10;-2.30;99.90
39875;DHT22;25547;52.530;13.194;2023-03-01T05:22:40;-2.40;99.90
39875;DHT22;25547;52.530;13.194;2023-03-01T05:25:06;-2.40;99.90
39875;DHT22;25547;52.530;13.194;2023-03-01T05:27:33;-2.40;99.90
39875;DHT22;25547;52.530;13.194;2023-03-01T05:29:58;-2.30;99.90
39875;DHT22;25547;52.530;13.194;2023-03-01T05:32:24;-2.20;99.90
39875;DHT22;25547;52.530;13.194;2023-03-01T05:34:54;-2.30;99.90
39875;DHT22;25547;52.530;13.194;2023-03-01T05:37:20;-2.30;99.90
39875;DHT22;25547;52.530;13.194;2023-03-01T05:39:48;-2.50;99.90
39875;DHT22;25547;52.530;13.194;2023-03-01T05:42:17;-2.50;99.90
39875;DHT22;25547;52.530;13.194;2023-03-01T05:44:43;-2.60;99.90
39875;DHT22;25547;52.530;13.194;2023-03-01T05:47:12;-2.60;99.90
39875;DHT22;25547;52.530;13.194;2023-03-01T05:49:37;-2.60;99.90
39875;DHT22;25547;52.530;13.194;2023-03-01T05:52:06;-2.60;99.90
39875;DHT22;25547;52.530;13.194;2023-03-01T05:54:31;-2.60;99.90
39875;DHT22;25547;52.530;13.194;2023-03-01T05:56:57;-2.70;99.90
39875;DHT22;25547;52.530;13.194;2023-03-01T05:59:22;-2.70;99.90
39875;DHT22;25547;52.530;13.194;2023-03-01T06:01:48;-2.70;99.90
39875;DHT22;25547;52.530;13.194;2023-03-01T06:04:16;-2.60;99.90
39875;DHT22;25547;52.530;13.194;2023-03-01T06:06:44;-2.60;99.90
39875;DHT22;25547;52.530;13.194;2023-03-01T06:09:10;-2.60;99.90
39875;DHT22;25547;52.530;13.194;2023-03-01T06:11:36;-2.60;99.90
39875;DHT22;25547;52.530;13.194;2023-03-01T06:14:06;-2.50;99.90
39875;DHT22;25547;52.530;13.194;2023-03-01T06:16:33;-2.50;99.90
39875;DHT22;25547;52.530;13.194;2023-03-01T06:18:59;-2.40;99.90
39875;DHT22;25547;52.530;13.194;2023-03-01T06:21:25;-2.30;99.90
39875;DHT22;25547;52.530;13.194;2023-03-01T06:23:52;-2.30;99.90
39875;DHT22;25547;52.530;13.194;2023-03-01T06:26:18;-2.30;99.90
39875;DHT22;25547;52.530;13.194;2023-03-01T06:28:46;-2.20;99.90
39875;DHT22;25547;52.530;13.194;2023-03-01T06:31:12;-2.10;99.90
39875;DHT22;25547;52.530;13.194;2023-03-01T06:33:37;-1.90;99.90
39875;DHT22;25547;52.530;13.194;2023-03-01T06:36:03;-1.80;99.90
39875;DHT22;25547;52.530;13.194;2023-03-01T06:38:31;-1.70;99.90
39875;DHT22;25547;52.530;13.194;2023-03-01T06:40:57;-1.80;99.90
39875;DHT22;25547;52.530;13.194;2023-03-01T06:43:25;-1.90;99.90
39875;DHT22;25547;52.530;13.194;2023-03-01T06:45:53;-1.90;99.90
39875;DHT22;25547;52.530;13.194;2023-03-01T06:48:18;-1.80;99.90
39875;DHT22;25547;52.530;13.194;2023-03-01T06:50:44;-1.80;99.90
39875;DHT22;25547;52.530;13.194;2023-03-01T06:53:10;-1.80;99.90
39875;DHT22;25547;52.530;13.194;2023-03-01T06:55:37;-1.80;99.90
39875;DHT22;25547;52.530;13.194;2023-03-01T06:58:03;-1.80;99.90
39875;DHT22;25547;52.530;13.194;2023-03-01T07:00:29;-1.70;99.90
39875;DHT22;25547;52.530;13.194;2023-03-01T07:02:58;-1.70;99.90
39875;DHT22;25547;52.530;13.194;2023-03-01T07:05:24;-1.60;99.90
39875;DHT22;25547;52.530;13.194;2023-03-01T07:07:50;-1.50;99.90
39875;DHT22;25547;52.530;13.194;2023-03-01T07:10:15;-1.30;99.90
39875;DHT22;25547;52.530;13.194;2023-03-01T07:12:41;-1.40;99.90
39875;DHT22;25547;52.530;13.194;2023-03-01T07:15:09;-1.30;99.90
39875;DHT22;25547;52.530;13.194;2023-03-01T07:17:35;-1.20;99.90
39875;DHT22;25547;52.530;13.194;2023-03-01T07:20:03;-1.20;99.90
39875;DHT22;25547;52.530;13.194;2023-03-01T07:22:32;-1.10;99.90
39875;DHT22;25547;52.530;13.194;2023-03-01T07:24:57;-1.10;99.90
39875;DHT22;25547;52.530;13.194;2023-03-01T07:27:26;-1.00;99.90
39875;DHT22;25547;52.530;13.194;2023-03-01T07:29:54;-0.90;99.90
39875;DHT22;25547;52.530;13.194;2023-03-01T07:32:20;-0.70;99.90
39875;DHT22;25547;52.530;13.194;2023-03-01T07:34:46;-0.60;99.90
39875;DHT22;25547;52.530;13.194;2023-03-01T07:37:14;-0.70;99.90
39875;DHT22;25547;52.530;13.194;2023-03-01T07:39:40;-0.60;99.90
39875;DHT22;25547;52.530;13.194;2023-03-01T07:42:09;-0.40;99.90
39875;DHT22;25547;52.530;13.194;2023-03-01T07:44:34;-0.40;99.90
39875;DHT22;25547;52.530;13.194;2023-03-01T07:47:03;-0.10;99.90
39875;DHT22;25547;52.530;13.194;2023-03-01T07:49:29;0.20;99.90
39875;DHT22;25547;52.530;13.194;2023-03-01T07:51:54;0.30;99.90
39875;DHT22;25547;52.530;13.194;2023-03-01T07:54:20;0.60;99.90
39875;DHT22;25547;52.530;13.194;2023-03-01T07:56:49;0.70;99.90
39875;DHT22;25547;52.530;13.194;2023-03-01T07:59:15;0.60;99.90
39875;DHT22;25547;52.530;13.194;2023-03-01T08:01:40;0.90;99.90
39875;DHT22;25547;52.530;13.194;2023-03-01T08:04:07;1.80;99.90
39875;DHT22;25547;52.530;13.194;2023-03-01T08:06:35;3.30;99.90
39875;DHT22;25547;52.530;13.194;2023-03-01T08:09:01;3.20;99.40
39875;DHT22;25547;52.530;13.194;2023-03-01T08:11:27;3.40;98.70
39875;DHT22;25547;52.530;13.194;2023-03-01T08:13:56;4.00;97.70
39875;DHT22;25547;52.530;13.194;2023-03-01T08:16:23;6.00;94.90
39875;DHT22;25547;52.530;13.194;2023-03-01T08:18:48;8.60;86.90
39875;DHT22;25547;52.530;13.194;2023-03-01T08:21:16;10.30;73.60
39875;DHT22;25547;52.530;13.194;2023-03-01T08:23:43;11.80;66.60
39875;DHT22;25547;52.530;13.194;2023-03-01T08:26:14;13.00;60.00
39875;DHT22;25547;52.530;13.194;2023-03-01T08:28:41;14.30;55.60
39875;DHT22;25547;52.530;13.194;2023-03-01T08:33:55;13.10;53.30
39875;DHT22;25547;52.530;13.194;2023-03-01T08:36:25;13.10;53.10
39875;DHT22;25547;52.530;13.194;2023-03-01T08:38:54;15.10;51.00
39875;DHT22;25547;52.530;13.194;2023-03-01T08:41:20;16.60;48.20
39875;DHT22;25547;52.530;13.194;2023-03-01T08:43:46;17.60;45.30
39875;DHT22;25547;52.530;13.194;2023-03-01T08:46:12;18.60;44.10
39875;DHT22;25547;52.530;13.194;2023-03-01T08:48:40;19.30;42.30
39875;DHT22;25547;52.530;13.194;2023-03-01T08:51:17;18.90;40.90
39875;DHT22;25547;52.530;13.194;2023-03-01T08:53:42;19.60;40.00
39875;DHT22;25547;52.530;13.194;2023-03-01T08:56:09;20.00;39.10
39875;DHT22;25547;52.530;13.194;2023-03-01T08:58:38;16.90;40.50
39875;DHT22;25547;52.530;13.194;2023-03-01T09:01:09;14.50;46.10
39875;DHT22;25547;52.530;13.194;2023-03-01T09:03:41;15.90;45.60
39875;DHT22;25547;52.530;13.194;2023-03-01T09:06:10;17.40;43.50
39875;DHT22;25547;52.530;13.194;2023-03-01T09:08:40;18.60;41.10
39875;DHT22;25547;52.530;13.194;2023-03-01T09:11:13;18.90;40.60
39875;DHT22;25547;52.530;13.194;2023-03-01T09:13:46;17.30;41.10
39875;DHT22;25547;52.530;13.194;2023-03-01T09:16:15;14.10;45.70
39875;DHT22;25547;52.530;13.194;2023-03-01T09:18:43;12.20;49.50
39875;DHT22;25547;52.530;13.194;2023-03-01T09:21:14;11.40;52.70
39875;DHT22;25547;52.530;13.194;2023-03-01T09:23:45;10.60;54.40
39875;DHT22;25547;52.530;13.194;2023-03-01T09:26:15;10.00;56.50
39875;DHT22;25547;52.530;13.194;2023-03-01T09:28:49;9.50;57.90
39875;DHT22;25547;52.530;13.194;2023-03-01T09:31:20;9.00;59.50
39875;DHT22;25547;52.530;13.194;2023-03-01T09:33:47;8.50;59.10
39875;DHT22;25547;52.530;13.194;2023-03-01T09:36:15;8.50;61.00
39875;DHT22;25547;52.530;13.194;2023-03-01T09:38:42;7.90;61.30
39875;DHT22;25547;52.530;13.194;2023-03-01T09:46:48;7.20;65.20
39875;DHT22;25547;52.530;13.194;2023-03-01T09:49:18;7.20;65.60
39875;DHT22;25547;52.530;13.194;2023-03-01T09:51:58;7.10;65.00
39875;DHT22;25547;52.530;13.194;2023-03-01T09:54:25;7.10;65.80
39875;DHT22;25547;52.530;13.194;2023-03-01T09:56:57;7.00;66.30
39875;DHT22;25547;52.530;13.194;2023-03-01T10:05:24;6.80;67.60
39875;DHT22;25547;52.530;13.194;2023-03-01T10:10:31;6.50;66.90
39875;DHT22;25547;52.530;13.194;2023-03-01T10:13:02;6.50;67.00
39875;DHT22;25547;52.530;13.194;2023-03-01T10:15:41;6.10;67.10
39875;DHT22;25547;52.530;13.194;2023-03-01T10:18:28;6.10;68.10
39875;DHT22;25547;52.530;13.194;2023-03-01T10:21:02;6.10;68.40
39875;DHT22;25547;52.530;13.194;2023-03-01T10:23:34;6.10;68.70
39875;DHT22;25547;52.530;13.194;2023-03-01T10:29:04;6.30;67.90
39875;DHT22;25547;52.530;13.194;2023-03-01T10:31:38;6.30;67.40
39875;DHT22;25547;52.530;13.194;2023-03-01T10:36:39;6.10;66.20
39875;DHT22;25547;52.530;13.194;2023-03-01T10:39:16;6.00;66.00
39875;DHT22;25547;52.530;13.194;2023-03-01T10:42:00;6.00;66.30
39875;DHT22;25547;52.530;13.194;2023-03-01T10:44:44;6.10;66.20
39875;DHT22;25547;52.530;13.194;2023-03-01T10:47:21;6.10;66.30
39875;DHT22;25547;52.530;13.194;2023-03-01T10:49:55;6.10;64.90
39875;DHT22;25547;52.530;13.194;2023-03-01T10:52:25;6.10;64.70
39875;DHT22;25547;52.530;13.194;2023-03-01T10:54:57;6.20;64.80
39875;DHT22;25547;52.530;13.194;2023-03-01T10:57:37;6.20;65.10
39875;DHT22;25547;52.530;13.194;2023-03-01T11:00:20;6.20;65.20
39875;DHT22;25547;52.530;13.194;2023-03-01T11:03:11;6.20;65.40
39875;DHT22;25547;52.530;13.194;2023-03-01T11:05:51;6.10;64.90
39875;DHT22;25547;52.530;13.194;2023-03-01T11:08:43;5.90;65.40
39875;DHT22;25547;52.530;13.194;2023-03-01T11:11:33;5.80;65.60
39875;DHT22;25547;52.530;13.194;2023-03-01T11:14:20;6.00;66.20
39875;DHT22;25547;52.530;13.194;2023-03-01T11:16:49;6.10;66.90
39875;DHT22;25547;52.530;13.194;2023-03-01T11:19:25;6.10;66.30
39875;DHT22;25547;52.530;13.194;2023-03-01T11:27:06;6.10;61.80
39875;DHT22;25547;52.530;13.194;2023-03-01T11:29:44;6.30;61.30
39875;DHT22;25547;52.530;13.194;2023-03-01T11:32:17;6.30;60.10
39875;DHT22;25547;52.530;13.194;2023-03-01T11:40:24;6.10;61.10
39875;DHT22;25547;52.530;13.194;2023-03-01T11:50:50;6.30;57.30
39875;DHT22;25547;52.530;13.194;2023-03-01T12:07:24;6.30;57.40
39875;DHT22;25547;52.530;13.194;2023-03-01T12:10:27;6.40;58.00
39875;DHT22;25547;52.530;13.194;2023-03-01T12:30:14;6.70;54.40
39875;DHT22;25547;52.530;13.194;2023-03-01T12:47:11;6.80;54.80
39875;DHT22;25547;52.530;13.194;2023-03-01T12:50:53;6.90;55.10
39875;DHT22;25547;52.530;13.194;2023-03-01T12:52:53;7.00;54.30
39875;DHT22;25547;52.530;13.194;2023-03-01T12:55:38;7.00;54.00
39875;DHT22;25547;52.530;13.194;2023-03-01T13:06:37;7.00;54.70
39875;DHT22;25547;52.530;13.194;2023-03-01T13:09:19;6.90;54.10
39875;DHT22;25547;52.530;13.194;2023-03-01T13:11:45;6.90;54.50
39875;DHT22;25547;52.530;13.194;2023-03-01T13:16:52;6.90;53.60
39875;DHT22;25547;52.530;13.194;2023-03-01T13:19:25;7.00;54.00
39875;DHT22;25547;52.530;13.194;2023-03-01T13:21:53;7.10;54.80
39875;DHT22;25547;52.530;13.194;2023-03-01T13:24:41;7.10;54.90
39875;DHT22;25547;52.530;13.194;2023-03-01T13:29:54;7.00;55.40
39875;DHT22;25547;52.530;13.194;2023-03-01T13:34:51;7.10;55.00
39875;DHT22;25547;52.530;13.194;2023-03-01T13:37:33;7.00;55.20
39875;DHT22;25547;52.530;13.194;2023-03-01T13:40:00;7.10;55.50
39875;DHT22;25547;52.530;13.194;2023-03-01T13:42:34;7.10;55.40
39875;DHT22;25547;52.530;13.194;2023-03-01T13:45:14;7.10;55.40
39875;DHT22;25547;52.530;13.194;2023-03-01T13:47:41;6.90;55.80
39875;DHT22;25547;52.530;13.194;2023-03-01T13:50:27;7.10;56.20
39875;DHT22;25547;52.530;13.194;2023-03-01T13:53:03;7.10;55.60
39875;DHT22;25547;52.530;13.194;2023-03-01T13:56:21;7.00;56.00
39875;DHT22;25547;52.530;13.194;2023-03-01T13:58:32;7.10;55.90
39875;DHT22;25547;52.530;13.194;2023-03-01T14:01:04;7.10;55.90
39875;DHT22;25547;52.530;13.194;2023-03-01T14:03:32;7.20;55.50
39875;DHT22;25547;52.530;13.194;2023-03-01T14:08:30;7.10;56.10
39875;DHT22;25547;52.530;13.194;2023-03-01T14:21:14;7.30;55.40
39875;DHT22;25547;52.530;13.194;2023-03-01T14:23:41;7.20;55.50
39875;DHT22;25547;52.530;13.194;2023-03-01T14:26:09;7.20;55.80
39875;DHT22;25547;52.530;13.194;2023-03-01T14:28:38;7.30;56.10
39875;DHT22;25547;52.530;13.194;2023-03-01T14:31:37;7.30;55.60
39875;DHT22;25547;52.530;13.194;2023-03-01T14:34:19;7.20;55.80
39875;DHT22;25547;52.530;13.194;2023-03-01T14:36:45;7.20;55.90
39875;DHT22;25547;52.530;13.194;2023-03-01T14:39:25;7.20;55.70
39875;DHT22;25547;52.530;13.194;2023-03-01T14:41:52;7.10;55.70
39875;DHT22;25547;52.530;13.194;2023-03-01T14:44:23;7.30;56.30
39875;DHT22;25547;52.530;13.194;2023-03-01T14:46:55;7.40;55.60
39875;DHT22;25547;52.530;13.194;2023-03-01T14:49:25;7.40;55.60
39875;DHT22;25547;52.530;13.194;2023-03-01T14:52:05;7.50;55.60
39875;DHT22;25547;52.530;13.194;2023-03-01T14:54:41;7.50;55.60
39875;DHT22;25547;52.530;13.194;2023-03-01T14:57:20;7.40;55.80
39875;DHT22;25547;52.530;13.194;2023-03-01T14:59:53;7.40;56.30
39875;DHT22;25547;52.530;13.194;2023-03-01T15:02:24;7.30;56.80
39875;DHT22;25547;52.530;13.194;2023-03-01T15:04:56;7.30;57.00
39875;DHT22;25547;52.530;13.194;2023-03-01T15:07:34;7.30;57.80
39875;DHT22;25547;52.530;13.194;2023-03-01T15:10:02;7.50;57.50
39875;DHT22;25547;52.530;13.194;2023-03-01T15:14:57;7.50;57.20
39875;DHT22;25547;52.530;13.194;2023-03-01T15:19:57;7.40;58.50
39875;DHT22;25547;52.530;13.194;2023-03-01T15:22:26;7.30;58.70
39875;DHT22;25547;52.530;13.194;2023-03-01T15:24:52;7.40;58.80
39875;DHT22;25547;52.530;13.194;2023-03-01T15:27:23;7.40;59.10
39875;DHT22;25547;52.530;13.194;2023-03-01T15:32:36;7.40;58.70
39875;DHT22;25547;52.530;13.194;2023-03-01T15:35:33;7.30;59.10
39875;DHT22;25547;52.530;13.194;2023-03-01T15:38:00;7.40;59.60
39875;DHT22;25547;52.530;13.194;2023-03-01T15:40:28;7.30;59.70
39875;DHT22;25547;52.530;13.194;2023-03-01T15:43:01;7.40;60.00
39875;DHT22;25547;52.530;13.194;2023-03-01T15:45:31;7.20;60.20
39875;DHT22;25547;52.530;13.194;2023-03-01T15:48:04;7.30;60.20
39875;DHT22;25547;52.530;13.194;2023-03-01T15:50:33;7.30;60.30
39875;DHT22;25547;52.530;13.194;2023-03-01T15:53:00;7.30;60.20
39875;DHT22;25547;52.530;13.194;2023-03-01T15:55:31;7.20;60.70
39875;DHT22;25547;52.530;13.194;2023-03-01T15:58:08;7.20;60.50
39875;DHT22;25547;52.530;13.194;2023-03-01T16:00:35;7.20;60.70
39875;DHT22;25547;52.530;13.194;2023-03-01T16:03:01;7.20;61.30
39875;DHT22;25547;52.530;13.194;2023-03-01T16:05:32;7.20;61.10
39875;DHT22;25547;52.530;13.194;2023-03-01T16:08:03;7.20;60.90
39875;DHT22;25547;52.530;13.194;2023-03-01T16:10:33;7.20;60.90
39875;DHT22;25547;52.530;13.194;2023-03-01T16:13:02;7.10;61.10
39875;DHT22;25547;52.530;13.194;2023-03-01T16:15:32;7.10;62.20
39875;DHT22;25547;52.530;13.194;2023-03-01T16:18:00;7.10;63.10
39875;DHT22;25547;52.530;13.194;2023-03-01T16:20:29;7.10;63.70
39875;DHT22;25547;52.530;13.194;2023-03-01T16:22:57;7.10;64.20
39875;DHT22;25547;52.530;13.194;2023-03-01T16:25:23;7.10;64.90
39875;DHT22;25547;52.530;13.194;2023-03-01T16:27:50;7.10;66.60
39875;DHT22;25547;52.530;13.194;2023-03-01T16:30:18;7.10;67.10
39875;DHT22;25547;52.530;13.194;2023-03-01T16:32:46;7.00;67.80
39875;DHT22;25547;52.530;13.194;2023-03-01T16:35:14;7.00;68.50
39875;DHT22;25547;52.530;13.194;2023-03-01T16:37:40;6.90;68.90
39875;DHT22;25547;52.530;13.194;2023-03-01T16:40:11;6.90;69.20
39875;DHT22;25547;52.530;13.194;2023-03-01T16:42:43;6.90;69.90
39875;DHT22;25547;52.530;13.194;2023-03-01T16:45:10;6.90;69.90
39875;DHT22;25547;52.530;13.194;2023-03-01T16:47:35;6.90;69.70
39875;DHT22;25547;52.530;13.194;2023-03-01T16:50:01;6.90;69.70
39875;DHT22;25547;52.530;13.194;2023-03-01T16:52:29;6.80;69.70
39875;DHT22;25547;52.530;13.194;2023-03-01T16:54:55;6.70;69.80
39875;DHT22;25547;52.530;13.194;2023-03-01T16:57:20;6.70;70.10
39875;DHT22;25547;52.530;13.194;2023-03-01T16:59:46;6.70;70.40
39875;DHT22;25547;52.530;13.194;2023-03-01T17:02:13;6.70;70.90
39875;DHT22;25547;52.530;13.194;2023-03-01T17:04:40;6.70;71.20
39875;DHT22;25547;52.530;13.194;2023-03-01T17:07:06;6.70;71.60
39875;DHT22;25547;52.530;13.194;2023-03-01T17:09:36;6.70;71.70
39875;DHT22;25547;52.530;13.194;2023-03-01T17:12:03;6.60;72.00
39875;DHT22;25547;52.530;13.194;2023-03-01T17:14:31;6.60;72.30
39875;DHT22;25547;52.530;13.194;2023-03-01T17:16:57;6.60;72.50
39875;DHT22;25547;52.530;13.194;2023-03-01T17:19:25;6.60;72.60
39875;DHT22;25547;52.530;13.194;2023-03-01T17:21:54;6.60;72.90
39875;DHT22;25547;52.530;13.194;2023-03-01T17:24:19;6.60;73.00
39875;DHT22;25547;52.530;13.194;2023-03-01T17:26:45;6.50;73.20
39875;DHT22;25547;52.530;13.194;2023-03-01T17:29:11;6.50;73.20
39875;DHT22;25547;52.530;13.194;2023-03-01T17:31:40;6.50;73.50
39875;DHT22;25547;52.530;13.194;2023-03-01T17:34:06;6.50;73.90
39875;DHT22;25547;52.530;13.194;2023-03-01T17:36:32;6.40;74.30
39875;DHT22;25547;52.530;13.194;2023-03-01T17:39:06;6.40;74.40
39875;DHT22;25547;52.530;13.194;2023-03-01T17:41:33;6.40;74.50
39875;DHT22;25547;52.530;13.194;2023-03-01T17:43:59;6.30;74.90
39875;DHT22;25547;52.530;13.194;2023-03-01T17:46:24;6.30;75.40
39875;DHT22;25547;52.530;13.194;2023-03-01T17:48:51;6.30;75.50
39875;DHT22;25547;52.530;13.194;2023-03-01T17:51:21;6.30;75.50
39875;DHT22;25547;52.530;13.194;2023-03-01T17:53:47;6.30;75.90
39875;DHT22;25547;52.530;13.194;2023-03-01T17:56:15;6.30;76.00
39875;DHT22;25547;52.530;13.194;2023-03-01T17:58:43;6.30;76.10
39875;DHT22;25547;52.530;13.194;2023-03-01T18:01:11;6.20;76.20